Time;durP1;ratioP1;P1;durP2;ratioP2;P2;SDS_P1;SDS_P2;PMS_P1;PMS_P2;Temp;Humidity;BMP_temperature;BMP_pressure;BME280_temperature;BME280_humidity;BME280_pressure;Samples;Min_cycle;Max_cycle;Signal;HPM_P1;HPM_P2
2022/10/30 00:00:18;;;;;;;7.00;4.20;;;11.30;99.90;;;;;;5035789;28;20030;-81
2022/10/30 00:02:47;;;;;;;8.13;5.78;;;11.30;99.90;;;;;;5034496;28;20095;-81
2022/10/30 00:05:14;;;;;;;5.57;4.75;;;11.40;99.90;;;;;;5038097;28;20025;-81
2022/10/30 00:07:40;;;;;;;9.98;4.75;;;11.40;99.90;;;;;;5050968;28;20088;-81
2022/10/30 00:10:06;;;;;;;6.13;4.65;;;11.40;99.90;;;;;;5037009;28;20076;-80
2022/10/30 00:12:32;;;;;;;5.93;4.50;;;11.40;99.90;;;;;;5036112;28;20017;-81
2022/10/30 00:14:58;;;;;;;6.78;4.45;;;11.40;99.90;;;;;;5035678;28;20112;-82
2022/10/30 00:17:24;;;;;;;7.15;5.03;;;11.40;99.90;;;;;;5035273;28;20021;-82
2022/10/30 00:19:50;;;;;;;10.40;5.20;;;11.50;99.90;;;;;;5036141;28;20053;-84
2022/10/30 00:22:15;;;;;;;7.00;5.53;;;11.50;99.90;;;;;;5036068;28;20037;-81
2022/10/30 00:24:41;;;;;;;6.32;5.07;;;11.60;99.90;;;;;;5035483;28;20615;-83
2022/10/30 00:27:07;;;;;;;7.00;4.40;;;11.60;99.90;;;;;;5034324;28;20360;-81
2022/10/30 00:29:33;;;;;;;6.47;4.97;;;11.60;99.90;;;;;;5034359;28;20025;-82
2022/10/30 00:31:59;;;;;;;4.65;3.70;;;11.60;99.90;;;;;;5034052;28;20033;-77
2022/10/30 00:34:25;;;;;;;5.05;4.45;;;11.60;99.90;;;;;;5033810;28;20014;-80
2022/10/30 00:36:50;;;;;;;8.43;4.90;;;11.60;99.90;;;;;;5032730;28;20034;-79
2022/10/30 00:39:16;;;;;;;6.05;4.70;;;11.60;99.90;;;;;;5032326;28;20520;-80
2022/10/30 00:41:42;;;;;;;8.05;4.88;;;11.60;99.90;;;;;;5032522;28;20521;-79
2022/10/30 00:44:30;;;;;;;6.68;5.07;;;11.60;99.90;;;;;;5033790;28;20479;-80
2022/10/30 00:46:57;;;;;;;8.00;4.65;;;11.60;99.90;;;;;;5022808;28;20037;-79
2022/10/30 00:49:23;;;;;;;;;;;11.60;99.90;;;;;;5034087;28;20029;-79
2022/10/30 00:51:53;;;;;;;7.03;5.18;;;11.60;99.90;;;;;;5033890;28;19928;-78
2022/10/30 00:54:21;;;;;;;6.93;5.50;;;11.50;99.90;;;;;;5039090;28;20018;-79
2022/10/30 00:56:51;;;;;;;7.60;5.00;;;11.50;99.90;;;;;;5040465;28;20386;-78
2022/10/30 00:59:25;;;;;;;7.18;5.50;;;11.40;99.90;;;;;;5034279;28;20017;-80
2022/10/30 01:01:52;;;;;;;9.82;5.05;;;11.40;99.90;;;;;;5036154;28;20040;-80
2022/10/30 01:04:19;;;;;;;5.95;4.57;;;11.40;99.90;;;;;;5026289;28;20076;-79
2022/10/30 01:06:50;;;;;;;8.00;4.93;;;11.30;99.90;;;;;;5033385;28;20427;-79
2022/10/30 01:09:20;;;;;;;5.57;4.68;;;11.30;99.90;;;;;;5033284;28;20025;-79
2022/10/30 01:11:46;;;;;;;6.70;5.15;;;11.30;99.90;;;;;;5033514;28;20037;-80
2022/10/30 01:14:15;;;;;;;6.28;5.28;;;11.30;99.90;;;;;;5033503;28;20479;-81
2022/10/30 01:16:51;;;;;;;9.75;6.28;;;11.30;99.90;;;;;;5033657;28;20402;-81
2022/10/30 01:19:32;;;;;;;7.93;5.80;;;11.30;99.90;;;;;;5033253;28;20383;-80
2022/10/30 01:22:13;;;;;;;8.50;5.60;;;11.20;99.90;;;;;;5031327;28;20030;-79
2022/10/30 01:25:13;;;;;;;10.15;5.95;;;11.30;99.90;;;;;;5033164;28;20116;-81
2022/10/30 01:27:51;;;;;;;8.13;5.40;;;11.20;99.90;;;;;;4952789;29;20098;-80
2022/10/30 01:30:39;;;;;;;7.72;5.80;;;11.30;99.90;;;;;;5022704;28;20033;-78
2022/10/30 01:33:04;;;;;;;;;;;11.40;99.90;;;;;;5033695;28;20056;-80
2022/10/30 01:35:47;;;;;;;8.77;5.50;;;11.40;99.90;;;;;;5033175;28;20448;-79
2022/10/30 01:38:27;;;;;;;7.78;5.90;;;11.50;99.90;;;;;;5032708;28;20075;-80
2022/10/30 01:40:53;;;;;;;8.75;6.30;;;11.50;99.90;;;;;;5039709;28;20024;-80
2022/10/30 01:43:19;;;;;;;9.48;6.72;;;11.50;99.90;;;;;;5032132;28;20026;-79
2022/10/30 01:46:12;;;;;;;8.50;6.07;;;11.60;99.90;;;;;;5032715;28;20018;-79
2022/10/30 01:49:12;;;;;;;7.20;5.43;;;11.60;99.90;;;;;;5032774;28;20018;-79
2022/10/30 01:51:55;;;;;;;9.23;5.35;;;11.70;99.90;;;;;;5032422;28;20069;-80
2022/10/30 01:54:38;;;;;;;7.35;5.07;;;11.70;99.90;;;;;;5032552;28;20064;-79
2022/10/30 01:57:30;;;;;;;9.75;6.00;;;11.70;99.90;;;;;;5032471;28;20021;-81
2022/10/30 02:00:02;;;;;;;8.13;5.18;;;11.70;99.90;;;;;;5033035;28;20033;-79
2022/10/30 02:02:28;;;;;;;10.18;6.20;;;11.70;99.90;;;;;;5033197;28;20038;-80
2022/10/30 02:04:54;;;;;;;6.45;5.13;;;11.70;99.90;;;;;;5032497;28;20127;-80
2022/10/30 02:07:21;;;;;;;5.97;4.65;;;11.70;99.90;;;;;;5032795;28;20032;-80
2022/10/30 02:09:47;;;;;;;13.00;6.22;;;11.70;99.90;;;;;;5031626;28;20417;-79
2022/10/30 02:12:13;;;;;;;7.00;5.28;;;11.70;99.90;;;;;;5032762;28;20029;-80
2022/10/30 02:14:42;;;;;;;7.63;5.57;;;11.70;99.90;;;;;;5033352;28;20013;-78
2022/10/30 02:17:10;;;;;;;7.82;5.07;;;11.70;99.90;;;;;;5033104;28;20017;-79
2022/10/30 02:19:36;;;;;;;6.95;4.78;;;11.70;99.90;;;;;;5033489;28;20033;-79
2022/10/30 02:22:02;;;;;;;7.15;5.93;;;11.60;99.90;;;;;;5032376;28;20040;-80
2022/10/30 02:24:30;;;;;;;6.65;5.47;;;11.60;99.90;;;;;;5032597;28;20025;-79
2022/10/30 02:26:56;;;;;;;8.18;5.40;;;11.50;99.90;;;;;;5030822;28;20053;-80
2022/10/30 02:29:21;;;;;;;8.60;5.00;;;11.50;99.90;;;;;;5033314;28;20067;-80
2022/10/30 02:31:47;;;;;;;8.70;4.70;;;11.50;99.90;;;;;;5033059;28;20087;-80
2022/10/30 02:34:14;;;;;;;8.43;5.13;;;11.60;99.90;;;;;;5032390;28;20018;-79
2022/10/30 02:36:40;;;;;;;5.75;4.32;;;11.60;99.90;;;;;;5031389;28;20078;-81
2022/10/30 02:39:06;;;;;;;7.13;4.40;;;11.60;99.90;;;;;;5032179;28;20374;-81
2022/10/30 02:41:32;;;;;;;6.30;4.03;;;11.60;99.90;;;;;;5031973;28;20044;-80
2022/10/30 02:43:58;;;;;;;8.40;4.35;;;11.60;99.90;;;;;;5031824;28;20025;-80
2022/10/30 02:46:24;;;;;;;5.05;3.95;;;11.70;99.90;;;;;;5032380;28;20037;-80
2022/10/30 02:48:50;;;;;;;5.25;4.07;;;11.70;99.90;;;;;;5035250;28;20036;-81
2022/10/30 02:51:16;;;;;;;6.38;4.07;;;11.70;99.90;;;;;;5031022;28;20057;-81
2022/10/30 02:53:42;;;;;;;6.53;4.13;;;11.70;99.90;;;;;;5035121;28;20061;-79
2022/10/30 02:56:11;;;;;;;4.72;3.35;;;11.60;99.90;;;;;;5044490;28;20060;-81
2022/10/30 02:58:37;;;;;;;7.70;3.95;;;11.60;99.90;;;;;;5032413;28;20025;-81
2022/10/30 03:01:14;;;;;;;5.68;3.95;;;11.50;99.90;;;;;;5032049;28;20033;-80
2022/10/30 03:03:40;;;;;;;4.35;3.13;;;11.50;99.90;;;;;;5032048;28;20029;-80
2022/10/30 03:06:08;;;;;;;5.53;3.25;;;11.50;99.90;;;;;;5031864;28;20120;-79
2022/10/30 03:08:35;;;;;;;7.07;3.67;;;11.50;99.90;;;;;;5032004;28;20032;-81
2022/10/30 03:11:06;;;;;;;8.75;3.35;;;11.50;99.90;;;;;;5031198;28;20059;-81
2022/10/30 03:13:33;;;;;;;5.25;3.50;;;11.40;99.90;;;;;;5032255;28;20383;-81
2022/10/30 03:16:05;;;;;;;5.20;3.42;;;11.40;99.90;;;;;;5042104;28;20002;-80
2022/10/30 03:18:31;;;;;;;5.22;3.10;;;11.40;99.90;;;;;;5034598;28;20123;-80
2022/10/30 03:21:00;;;;;;;5.90;3.05;;;11.30;99.90;;;;;;5031623;28;20372;-82
2022/10/30 03:23:26;;;;;;;6.55;2.92;;;11.20;99.90;;;;;;5031612;28;20029;-81
2022/10/30 03:25:57;;;;;;;7.68;3.92;;;11.20;99.90;;;;;;5030648;28;20032;-81
2022/10/30 03:28:25;;;;;;;3.90;2.53;;;11.00;99.90;;;;;;5031985;28;20026;-81
2022/10/30 03:30:57;;;;;;;5.25;2.55;;;11.00;99.90;;;;;;5031508;28;20111;-80
2022/10/30 03:33:23;;;;;;;6.97;2.92;;;11.00;99.90;;;;;;5031681;28;20410;-82
2022/10/30 03:35:49;;;;;;;4.78;2.72;;;10.90;99.90;;;;;;5031329;28;20037;-80
2022/10/30 03:38:15;;;;;;;4.45;2.60;;;10.90;99.90;;;;;;5030547;28;20426;-79
2022/10/30 03:40:41;;;;;;;6.93;3.15;;;10.90;99.90;;;;;;5031363;28;20028;-79
2022/10/30 03:43:07;;;;;;;5.97;3.17;;;11.00;99.90;;;;;;5030790;28;20505;-80
2022/10/30 03:45:33;;;;;;;6.07;2.72;;;11.00;99.90;;;;;;5033990;28;20032;-81
2022/10/30 03:48:00;;;;;;;7.60;3.20;;;11.00;99.90;;;;;;5035024;28;20033;-79
2022/10/30 03:50:27;;;;;;;2.85;2.25;;;11.00;99.90;;;;;;5034716;28;20155;-80
2022/10/30 03:52:53;;;;;;;4.95;2.53;;;10.90;99.90;;;;;;5034768;28;20049;-80
2022/10/30 03:55:20;;;;;;;8.17;2.70;;;10.90;99.90;;;;;;5035063;28;20025;-80
2022/10/30 03:57:45;;;;;;;5.57;3.08;;;10.80;99.90;;;;;;5034949;28;20429;-82
2022/10/30 04:00:12;;;;;;;3.03;2.28;;;10.70;99.90;;;;;;5034446;28;20108;-81
2022/10/30 04:02:38;;;;;;;5.80;2.70;;;10.70;99.90;;;;;;5033700;28;20034;-80
2022/10/30 04:05:04;;;;;;;2.90;2.22;;;10.60;99.90;;;;;;5035644;28;20024;-78
2022/10/30 04:07:30;;;;;;;4.28;2.65;;;10.50;99.90;;;;;;5034644;28;20026;-80
2022/10/30 04:09:56;;;;;;;4.68;2.90;;;10.50;99.90;;;;;;5034351;28;20386;-80
2022/10/30 04:12:22;;;;;;;5.05;2.63;;;10.50;99.90;;;;;;5034617;28;20044;-79
2022/10/30 04:14:47;;;;;;;4.55;2.15;;;10.40;99.90;;;;;;5033271;28;20028;-80
2022/10/30 04:17:13;;;;;;;8.73;2.20;;;10.30;99.90;;;;;;5034114;28;20437;-81
2022/10/30 04:19:39;;;;;;;5.38;2.10;;;10.30;99.90;;;;;;5034431;28;20079;-80
2022/10/30 04:22:05;;;;;;;3.33;2.08;;;10.40;99.90;;;;;;5032671;28;20399;-79
2022/10/30 04:24:30;;;;;;;5.57;2.03;;;10.40;99.90;;;;;;5034314;28;20037;-80
2022/10/30 04:26:56;;;;;;;3.30;2.30;;;10.40;99.90;;;;;;5034054;28;20037;-79
2022/10/30 04:29:22;;;;;;;3.40;2.03;;;10.50;99.90;;;;;;5034043;28;20018;-80
2022/10/30 04:31:48;;;;;;;2.95;2.17;;;10.40;99.90;;;;;;5033485;28;20045;-80
2022/10/30 04:34:13;;;;;;;3.70;1.77;;;10.40;99.90;;;;;;5033994;28;20029;-79
2022/10/30 04:36:39;;;;;;;4.50;1.63;;;10.40;99.90;;;;;;5034763;28;20031;-79
2022/10/30 04:39:05;;;;;;;3.63;1.90;;;10.40;99.90;;;;;;5035770;28;20018;-79
2022/10/30 04:41:31;;;;;;;5.13;1.90;;;10.40;99.90;;;;;;5033862;28;20421;-78
2022/10/30 04:43:57;;;;;;;3.67;2.00;;;10.40;99.90;;;;;;5033883;28;20455;-79
2022/10/30 04:46:22;;;;;;;2.90;1.88;;;10.50;99.90;;;;;;5033856;28;20026;-79
2022/10/30 04:48:48;;;;;;;3.97;2.08;;;10.60;99.90;;;;;;5033936;28;20034;-80
2022/10/30 04:51:14;;;;;;;5.93;1.70;;;10.60;99.90;;;;;;5038836;28;20068;-77
2022/10/30 04:53:41;;;;;;;5.20;1.75;;;10.60;99.90;;;;;;5034665;28;20467;-78
2022/10/30 04:56:07;;;;;;;3.03;1.40;;;10.60;99.90;;;;;;5041982;28;20489;-80
2022/10/30 04:58:32;;;;;;;3.20;1.65;;;10.40;99.90;;;;;;5035689;28;20025;-79
2022/10/30 05:01:05;;;;;;;4.38;2.35;;;10.40;99.90;;;;;;5033743;28;20383;-80
2022/10/30 05:03:31;;;;;;;3.55;1.58;;;10.30;99.90;;;;;;5032655;28;20051;-80
2022/10/30 05:06:13;;;;;;;2.40;1.45;;;10.30;99.90;;;;;;5033777;28;20483;-81
2022/10/30 05:08:39;;;;;;;6.10;2.05;;;10.20;99.90;;;;;;5033277;28;20060;-80
2022/10/30 05:11:05;;;;;;;4.10;1.85;;;10.20;99.90;;;;;;5033480;28;20052;-80
2022/10/30 05:13:31;;;;;;;1.77;0.95;;;10.20;99.90;;;;;;5032027;28;20458;-80
2022/10/30 05:15:57;;;;;;;4.38;1.73;;;10.10;99.90;;;;;;5032012;28;20067;-80
2022/10/30 05:18:23;;;;;;;2.83;1.42;;;10.10;99.90;;;;;;5032462;28;20471;-80
2022/10/30 05:20:49;;;;;;;1.95;1.30;;;10.10;99.90;;;;;;5031616;28;20017;-80
2022/10/30 05:23:15;;;;;;;2.17;1.60;;;10.30;99.90;;;;;;5032090;28;20052;-79
2022/10/30 05:25:41;;;;;;;3.95;2.20;;;10.30;99.90;;;;;;5032922;28;20017;-79
2022/10/30 05:28:08;;;;;;;4.75;1.40;;;10.40;99.90;;;;;;5033007;28;20076;-80
2022/10/30 05:30:34;;;;;;;1.33;1.02;;;10.40;99.90;;;;;;5033428;28;20013;-80
2022/10/30 05:33:03;;;;;;;5.78;2.05;;;10.30;99.90;;;;;;5033326;28;20475;-80
2022/10/30 05:35:31;;;;;;;3.05;1.10;;;10.30;99.90;;;;;;5032973;28;20029;-79
2022/10/30 05:38:01;;;;;;;3.30;1.52;;;10.30;99.90;;;;;;5035067;28;20056;-80
2022/10/30 05:40:27;;;;;;;7.10;2.22;;;10.40;99.90;;;;;;5034945;28;20026;-78
2022/10/30 05:42:53;;;;;;;3.85;1.80;;;10.40;99.90;;;;;;5035837;28;20029;-80
2022/10/30 05:45:19;;;;;;;5.43;1.63;;;10.50;99.80;;;;;;5035811;28;20018;-80
2022/10/30 05:47:58;;;;;;;4.03;1.60;;;10.50;99.70;;;;;;5034309;28;20044;-78
2022/10/30 05:50:25;;;;;;;4.45;1.88;;;10.50;99.50;;;;;;5033991;28;20041;-80
2022/10/30 05:52:56;;;;;;;4.80;1.50;;;10.40;99.50;;;;;;5033711;28;20026;-79
2022/10/30 05:55:21;;;;;;;3.80;1.75;;;10.40;99.70;;;;;;5033588;28;20502;-79
2022/10/30 05:57:47;;;;;;;3.03;1.30;;;10.40;99.70;;;;;;5032386;28;20029;-79
2022/10/30 06:00:14;;;;;;;4.45;1.33;;;10.40;99.50;;;;;;5034976;28;20098;-78
2022/10/30 06:02:40;;;;;;;2.25;1.17;;;10.50;99.50;;;;;;5032445;28;20037;-78
2022/10/30 06:05:06;;;;;;;2.72;1.30;;;10.40;99.20;;;;;;5032870;28;20030;-80
2022/10/30 06:07:32;;;;;;;2.13;1.02;;;10.30;99.00;;;;;;5032902;28;20379;-80
2022/10/30 06:09:57;;;;;;;3.22;0.90;;;10.30;97.80;;;;;;5033680;28;20020;-80
2022/10/30 06:12:23;;;;;;;1.55;0.98;;;10.30;95.60;;;;;;5033842;28;20100;-79
2022/10/30 06:14:49;;;;;;;4.28;0.85;;;10.30;94.80;;;;;;5034773;28;20021;-78
2022/10/30 06:17:15;;;;;;;2.28;1.20;;;10.40;94.90;;;;;;5032626;28;20095;-78
2022/10/30 06:19:41;;;;;;;2.20;1.00;;;10.40;94.50;;;;;;5034017;28;20433;-79
2022/10/30 06:22:07;;;;;;;2.88;0.57;;;10.40;93.60;;;;;;5034239;28;20038;-78
2022/10/30 06:24:33;;;;;;;2.35;0.85;;;10.40;92.20;;;;;;5037242;28;20025;-77
2022/10/30 06:27:01;;;;;;;1.08;0.52;;;10.30;91.90;;;;;;5036596;28;20080;-79
2022/10/30 06:29:27;;;;;;;1.95;0.55;;;10.20;91.50;;;;;;5032554;28;20022;-79
2022/10/30 06:31:53;;;;;;;1.00;0.30;;;10.10;90.40;;;;;;5033827;28;20030;-81
2022/10/30 06:34:19;;;;;;;1.88;1.13;;;10.00;87.70;;;;;;5032467;28;20029;-79
2022/10/30 06:36:45;;;;;;;0.90;0.68;;;9.90;89.50;;;;;;5033946;28;20486;-78
2022/10/30 06:39:10;;;;;;;2.67;0.70;;;9.80;90.20;;;;;;5033499;28;20034;-79
2022/10/30 06:41:36;;;;;;;1.83;0.47;;;9.80;86.00;;;;;;5035992;28;20108;-78
2022/10/30 06:44:02;;;;;;;7.03;0.47;;;9.90;84.30;;;;;;5035659;28;20032;-78
2022/10/30 06:46:28;;;;;;;2.50;0.60;;;10.00;84.10;;;;;;5035803;28;20037;-78
2022/10/30 06:48:54;;;;;;;0.70;0.30;;;10.00;82.40;;;;;;5033088;28;20060;-78
2022/10/30 06:51:20;;;;;;;1.38;0.50;;;10.00;81.10;;;;;;5034640;28;20103;-80
2022/10/30 06:53:46;;;;;;;2.38;0.80;;;10.00;79.10;;;;;;5034932;28;20022;-76
2022/10/30 06:56:12;;;;;;;4.40;0.73;;;9.90;78.50;;;;;;5041196;28;20026;-80
2022/10/30 06:58:38;;;;;;;0.85;0.50;;;9.70;79.50;;;;;;5036012;28;20057;-79
2022/10/30 07:01:05;;;;;;;1.10;0.70;;;9.60;79.90;;;;;;5032607;28;20034;-78
2022/10/30 07:03:32;;;;;;;1.17;0.55;;;9.40;81.20;;;;;;5029997;28;20402;-78
2022/10/30 07:05:58;;;;;;;1.05;0.57;;;9.30;82.60;;;;;;5033304;28;20037;-76
2022/10/30 07:08:24;;;;;;;2.65;0.60;;;9.10;83.10;;;;;;5031857;28;20387;-79
2022/10/30 07:10:50;;;;;;;3.47;0.60;;;9.10;84.30;;;;;;5029204;28;20026;-80
2022/10/30 07:13:16;;;;;;;1.70;0.80;;;9.10;85.80;;;;;;5034070;28;20090;-80
2022/10/30 07:15:42;;;;;;;1.80;0.63;;;9.10;84.80;;;;;;5033991;28;20029;-80
2022/10/30 07:18:09;;;;;;;2.83;0.95;;;9.10;85.20;;;;;;5033111;28;20033;-79
2022/10/30 07:20:38;;;;;;;2.07;0.70;;;9.10;85.50;;;;;;5035316;28;20443;-81
2022/10/30 07:23:07;;;;;;;5.38;0.80;;;9.20;85.30;;;;;;5035310;28;20065;-82
2022/10/30 07:25:33;;;;;;;1.77;0.73;;;9.20;84.80;;;;;;5033884;28;20026;-82
2022/10/30 07:28:00;;;;;;;4.38;0.80;;;9.20;85.10;;;;;;5032597;28;20079;-80
2022/10/30 07:30:26;;;;;;;1.20;0.65;;;9.20;85.30;;;;;;5035832;28;20432;-80
2022/10/30 07:32:57;;;;;;;1.45;0.60;;;9.20;84.20;;;;;;5037528;28;20079;-80
2022/10/30 07:35:22;;;;;;;0.80;0.70;;;9.10;84.70;;;;;;5035049;28;20033;-79
2022/10/30 07:37:48;;;;;;;1.65;0.82;;;9.20;85.00;;;;;;5035033;28;20022;-79
2022/10/30 07:40:14;;;;;;;4.63;0.90;;;9.10;83.80;;;;;;5035037;28;20031;-80
2022/10/30 07:42:40;;;;;;;1.45;0.73;;;9.10;83.30;;;;;;5034648;28;20047;-80
2022/10/30 07:45:07;;;;;;;1.65;0.43;;;9.10;83.30;;;;;;5035017;28;20489;-81
2022/10/30 07:47:37;;;;;;;0.80;0.55;;;9.10;82.00;;;;;;5034829;28;20112;-80
2022/10/30 07:50:03;;;;;;;9.05;0.98;;;9.10;81.30;;;;;;5033642;28;20029;-80
2022/10/30 07:52:32;;;;;;;2.08;1.02;;;9.20;81.60;;;;;;5034278;28;20048;-80
2022/10/30 07:54:58;;;;;;;3.85;0.68;;;9.40;82.60;;;;;;5033927;28;20024;-80
2022/10/30 07:57:24;;;;;;;2.88;1.20;;;9.60;80.80;;;;;;5035986;28;20030;-79
2022/10/30 07:59:49;;;;;;;3.10;0.80;;;9.80;79.90;;;;;;5038150;28;20032;-80
2022/10/30 08:02:15;;;;;;;2.35;0.93;;;10.00;79.40;;;;;;5033697;28;20041;-82
2022/10/30 08:04:41;;;;;;;2.92;1.05;;;10.00;78.70;;;;;;5031913;28;20559;-82
2022/10/30 08:07:07;;;;;;;4.30;1.10;;;9.90;78.90;;;;;;5037795;28;20048;-80
2022/10/30 08:09:33;;;;;;;2.08;0.90;;;9.90;78.70;;;;;;5045165;28;20022;-83
2022/10/30 08:11:58;;;;;;;3.83;0.60;;;9.70;78.60;;;;;;5038472;28;20037;-81
2022/10/30 08:14:24;;;;;;;4.57;0.80;;;9.70;79.10;;;;;;5035240;28;20021;-79
2022/10/30 08:16:50;;;;;;;3.20;1.10;;;9.60;78.70;;;;;;5035971;28;20026;-82
2022/10/30 08:19:16;;;;;;;0.68;0.60;;;9.40;78.60;;;;;;5035532;28;20031;-82
2022/10/30 08:21:42;;;;;;;2.28;0.60;;;9.40;79.10;;;;;;5035371;28;20486;-87
2022/10/30 08:24:08;;;;;;;4.80;0.82;;;9.30;79.70;;;;;;5034816;28;20033;-83
2022/10/30 08:26:34;;;;;;;2.67;1.05;;;9.30;79.80;;;;;;5036812;28;20030;-85
2022/10/30 08:29:00;;;;;;;5.93;0.65;;;9.30;79.90;;;;;;5036200;28;20047;-85
2022/10/30 08:31:26;;;;;;;5.32;0.90;;;9.30;79.90;;;;;;5035677;28;20120;-86
2022/10/30 08:33:51;;;;;;;0.65;0.63;;;9.30;80.00;;;;;;5035453;28;20478;-86
2022/10/30 08:36:17;;;;;;;6.28;0.85;;;9.20;80.30;;;;;;5036080;28;20037;-86
2022/10/30 08:38:43;;;;;;;2.33;0.80;;;9.30;80.60;;;;;;5033693;28;20071;-82
2022/10/30 08:41:09;;;;;;;0.90;0.75;;;9.30;80.70;;;;;;5034710;28;20029;-80
2022/10/30 08:43:35;;;;;;;2.05;1.08;;;9.30;80.70;;;;;;5024607;28;20050;-81
2022/10/30 08:46:01;;;;;;;1.70;0.77;;;9.30;81.70;;;;;;5021127;28;20018;-79
2022/10/30 08:48:27;;;;;;;7.22;1.30;;;9.40;81.70;;;;;;5033731;28;20025;-79
2022/10/30 08:50:58;;;;;;;5.43;1.25;;;9.50;81.80;;;;;;5033466;28;20058;-79
2022/10/30 08:53:24;;;;;;;1.33;1.00;;;9.60;80.30;;;;;;5034338;28;20041;-80
2022/10/30 08:55:50;;;;;;;0.68;0.47;;;9.50;80.40;;;;;;5034628;28;20026;-78
2022/10/30 08:58:16;;;;;;;1.92;0.60;;;9.50;80.60;;;;;;5041972;28;20500;-78
2022/10/30 09:00:42;;;;;;;9.55;1.05;;;9.40;80.30;;;;;;5036478;28;20017;-78
2022/10/30 09:03:08;;;;;;;2.92;0.90;;;9.40;80.80;;;;;;5034923;28;20538;-78
2022/10/30 09:05:36;;;;;;;7.35;0.70;;;9.40;80.90;;;;;;5040450;28;20022;-80
2022/10/30 09:08:07;;;;;;;1.85;0.80;;;9.40;80.80;;;;;;5036852;28;20022;-80
2022/10/30 09:10:33;;;;;;;2.22;0.85;;;9.50;81.10;;;;;;5036888;28;20450;-80
2022/10/30 09:13:01;;;;;;;1.17;0.70;;;9.60;81.10;;;;;;5036165;28;20024;-78
2022/10/30 09:15:30;;;;;;;4.95;1.15;;;9.60;80.10;;;;;;5033844;28;20063;-76
2022/10/30 09:18:02;;;;;;;2.95;0.98;;;9.60;80.20;;;;;;5037025;28;20407;-78
2022/10/30 09:20:33;;;;;;;2.10;0.90;;;9.60;78.80;;;;;;5044446;28;20033;-79
2022/10/30 09:22:59;;;;;;;3.90;1.20;;;9.60;78.60;;;;;;5035717;28;20060;-79
2022/10/30 09:25:25;;;;;;;2.88;1.38;;;9.50;78.50;;;;;;5040331;28;20021;-81
2022/10/30 09:28:06;;;;;;;2.70;1.02;;;9.50;78.90;;;;;;5042345;28;20033;-81
2022/10/30 09:30:32;;;;;;;2.10;0.80;;;9.50;78.90;;;;;;5039921;28;20037;-81
2022/10/30 09:33:01;;;;;;;1.40;0.57;;;9.50;79.20;;;;;;5040575;28;20021;-81
2022/10/30 09:35:27;;;;;;;2.17;0.75;;;9.50;78.20;;;;;;5035710;28;20095;-83
2022/10/30 09:37:54;;;;;;;1.80;0.90;;;9.40;78.40;;;;;;5036004;28;20056;-83
2022/10/30 09:40:40;;;;;;;2.97;0.90;;;9.40;79.00;;;;;;5036430;28;20444;-88
2022/10/30 09:43:39;;;;;;;1.85;1.30;;;9.40;80.00;;;;;;5038421;28;20080;-89
2022/10/30 09:46:30;;;;;;;3.42;0.70;;;9.50;80.10;;;;;;5011319;28;20029;-87
2022/10/30 09:49:13;;;;;;;4.03;1.38;;;9.50;79.90;;;;;;5031939;28;20045;-86
2022/10/30 09:52:05;;;;;;;3.35;0.70;;;9.40;80.40;;;;;;5036876;28;20073;-89
2022/10/30 09:54:37;;;;;;;1.27;1.00;;;9.40;80.10;;;;;;5044994;28;20081;-89
2022/10/30 09:57:32;;;;;;;2.25;0.70;;;10.10;82.20;;;;;;5051187;28;20026;-87
2022/10/30 10:00:04;;;;;;;2.97;0.80;;;12.30;78.10;;;;;;5032551;28;20382;-90
2022/10/30 10:02:59;;;;;;;4.68;1.15;;;13.00;71.40;;;;;;5038802;28;20060;-88
2022/10/30 10:05:31;;;;;;;5.03;0.90;;;12.70;71.30;;;;;;5015309;28;20114;-85
2022/10/30 10:08:05;;;;;;;6.68;1.30;;;12.20;71.80;;;;;;5035006;28;20112;-86
2022/10/30 10:10:48;;;;;;;2.90;1.20;;;11.90;73.10;;;;;;5042958;28;20044;-86
2022/10/30 10:13:34;;;;;;;1.45;0.80;;;11.60;74.50;;;;;;5030266;28;20018;-89
2022/10/30 10:16:22;;;;;;;2.08;0.60;;;11.20;74.70;;;;;;5024508;28;20033;-88
2022/10/30 10:19:07;;;;;;;4.03;1.33;;;10.70;76.00;;;;;;5035713;28;20021;-84
2022/10/30 10:21:40;;;;;;;6.57;1.40;;;10.40;77.40;;;;;;5035563;28;20470;-88
2022/10/30 10:24:24;;;;;;;5.90;2.45;;;10.20;78.60;;;;;;5039707;28;20025;-85
2022/10/30 10:27:04;;;;;;;4.75;1.27;;;10.20;79.60;;;;;;5046915;28;20036;-86
2022/10/30 10:29:48;;;;;;;5.68;2.63;;;10.20;78.30;;;;;;5043413;28;20105;-90
2022/10/30 10:32:42;;;;;;;12.02;5.25;;;10.00;77.10;;;;;;5036515;28;20021;-85
2022/10/30 10:35:20;;;;;;;2.53;1.52;;;9.90;77.50;;;;;;5035085;28;20075;-83
2022/10/30 10:37:52;;;;;;;3.33;1.30;;;9.90;76.80;;;;;;5026445;28;20030;-81
2022/10/30 10:40:27;;;;;;;1.98;0.75;;;9.90;74.10;;;;;;5033683;28;20025;-83
2022/10/30 10:43:24;;;;;;;2.55;1.10;;;9.90;71.30;;;;;;5035305;28;20446;-81
2022/10/30 10:46:12;;;;;;;3.50;0.90;;;9.80;70.10;;;;;;5034477;28;20026;-85
2022/10/30 10:48:54;;;;;;;2.35;0.90;;;9.50;69.90;;;;;;5039615;28;20018;-85
2022/10/30 10:51:22;;;;;;;5.95;1.48;;;9.40;69.40;;;;;;5038825;28;20524;-84
2022/10/30 10:53:58;;;;;;;2.70;0.80;;;9.30;69.80;;;;;;5037740;28;20040;-83
2022/10/30 10:56:34;;;;;;;0.97;0.80;;;9.20;69.90;;;;;;5040743;28;20033;-85
2022/10/30 10:59:07;;;;;;;5.20;1.58;;;9.20;69.90;;;;;;5051780;28;20036;-90
2022/10/30 11:01:39;;;;;;;3.08;1.25;;;9.20;69.70;;;;;;5054106;28;20034;-89
2022/10/30 11:04:35;;;;;;;2.60;0.90;;;9.20;70.40;;;;;;5052631;28;20017;-90
2022/10/30 11:07:17;;;;;;;2.67;0.85;;;9.30;70.20;;;;;;5055117;28;20116;-89
2022/10/30 11:09:46;;;;;;;3.30;1.40;;;9.30;69.70;;;;;;5040263;28;20044;-87
2022/10/30 11:12:14;;;;;;;3.08;1.33;;;9.50;69.40;;;;;;5040414;28;20073;-87
2022/10/30 11:14:46;;;;;;;1.55;0.68;;;9.50;69.30;;;;;;5039505;28;20022;-85
2022/10/30 11:17:24;;;;;;;5.68;1.45;;;9.40;70.20;;;;;;5038140;28;20075;-86
2022/10/30 11:19:53;;;;;;;;;;;9.30;72.60;;;;;;5039550;28;20025;-86
2022/10/30 11:22:49;;;;;;;4.78;0.65;;;9.10;74.50;;;;;;5054530;28;20012;-86
2022/10/30 11:25:20;;;;;;;5.50;0.90;;;8.70;78.40;;;;;;5032307;28;20061;-87
2022/10/30 11:27:49;;;;;;;1.95;0.95;;;8.20;83.00;;;;;;5040029;28;20021;-88
2022/10/30 11:30:21;;;;;;;2.83;1.00;;;7.80;85.60;;;;;;5040288;28;20100;-86
2022/10/30 11:32:47;;;;;;;1.63;1.33;;;7.50;86.50;;;;;;5045922;28;20501;-86
2022/10/30 11:35:16;;;;;;;3.03;1.42;;;7.40;86.60;;;;;;5048551;28;20036;-86
2022/10/30 11:37:43;;;;;;;7.60;3.20;;;7.30;87.00;;;;;;5040381;28;20029;-86
2022/10/30 11:40:12;;;;;;;6.05;1.45;;;7.40;87.00;;;;;;5043848;28;20536;-86
2022/10/30 11:42:45;;;;;;;1.55;0.90;;;7.40;87.20;;;;;;5046596;28;20108;-86
2022/10/30 11:45:22;;;;;;;3.28;1.67;;;7.40;87.30;;;;;;5054324;28;20021;-84
2022/10/30 11:47:48;;;;;;;;;;;7.40;87.70;;;;;;5047071;28;20024;-83
2022/10/30 11:50:31;;;;;;;2.17;0.75;;;7.30;87.20;;;;;;5042098;28;19905;-85
2022/10/30 11:53:01;;;;;;;0.75;0.73;;;7.20;88.40;;;;;;5041985;28;20034;-84
2022/10/30 11:55:47;;;;;;;6.20;1.20;;;7.10;88.70;;;;;;5043148;28;20108;-85
2022/10/30 11:58:26;;;;;;;5.70;2.28;;;7.10;88.50;;;;;;5041347;28;20486;-86
2022/10/30 12:01:07;;;;;;;3.83;1.13;;;7.00;87.30;;;;;;5042278;28;20022;-84
2022/10/30 12:03:40;;;;;;;1.83;1.05;;;7.00;85.90;;;;;;5042210;28;20061;-84
2022/10/30 12:06:26;;;;;;;1.58;1.00;;;7.00;84.40;;;;;;5038280;28;20021;-85
2022/10/30 12:09:10;;;;;;;1.02;0.80;;;7.00;83.40;;;;;;5041464;28;20021;-83
2022/10/30 12:11:38;;;;;;;4.90;1.58;;;6.90;83.40;;;;;;5036895;28;20108;-86
2022/10/30 12:14:05;;;;;;;3.03;1.30;;;6.90;83.30;;;;;;5025391;28;20025;-86
2022/10/30 12:16:32;;;;;;;1.20;0.95;;;6.90;82.70;;;;;;5037783;28;20036;-85
2022/10/30 12:19:14;;;;;;;2.28;1.27;;;7.00;81.40;;;;;;5038149;28;20123;-88
2022/10/30 12:21:44;;;;;;;1.77;1.05;;;7.00;81.70;;;;;;5040299;28;20038;-88
2022/10/30 12:24:30;;;;;;;4.95;1.90;;;6.90;81.20;;;;;;5041684;28;20022;-90
2022/10/30 12:27:10;;;;;;;5.43;0.80;;;6.80;81.30;;;;;;5041088;28;20077;-89
2022/10/30 12:30:07;;;;;;;6.50;1.58;;;6.80;81.10;;;;;;5037204;28;20037;-90
2022/10/30 12:33:02;;;;;;;1.33;1.17;;;6.80;81.50;;;;;;5035707;28;20514;-90
2022/10/30 12:35:40;;;;;;;3.63;2.13;;;6.70;81.30;;;;;;5037870;28;20064;-90
2022/10/30 12:38:20;;;;;;;1.52;0.80;;;6.70;81.00;;;;;;5045982;28;20021;-87
2022/10/30 12:40:59;;;;;;;3.60;0.98;;;6.70;80.80;;;;;;5069182;28;20040;-88
2022/10/30 12:43:30;;;;;;;7.43;2.13;;;6.80;81.10;;;;;;5045875;28;20093;-91
2022/10/30 12:46:21;;;;;;;3.55;1.73;;;6.90;81.10;;;;;;5038218;28;20960;-88
2022/10/30 12:48:55;;;;;;;2.13;1.20;;;7.00;81.20;;;;;;5038394;28;20108;-90
2022/10/30 12:51:34;;;;;;;3.90;1.48;;;7.00;81.20;;;;;;5037843;28;20115;-91
2022/10/30 12:54:12;;;;;;;7.28;3.22;;;7.10;81.80;;;;;;5043676;28;20108;-87
2022/10/30 12:56:43;;;;;;;5.03;2.92;;;7.00;82.80;;;;;;5049433;28;20163;-84
2022/10/30 12:59:48;;;;;;;4.32;2.13;;;6.80;83.60;;;;;;5043932;28;20086;-84
2022/10/30 13:03:04;;;;;;;1.73;0.90;;;6.70;84.40;;;;;;5038365;28;20045;-83
2022/10/30 13:05:54;;;;;;;2.10;1.50;;;6.60;84.90;;;;;;5016913;28;20102;-84
2022/10/30 13:08:37;;;;;;;4.43;1.58;;;6.50;85.70;;;;;;5031363;28;20025;-81
2022/10/30 13:11:10;;;;;;;1.38;0.90;;;6.40;86.60;;;;;;5035494;28;20148;-85